sensor_id;sensor_type;location;lat;lon;timestamp;pressure;altitude;pressure_sealevel;temperature;humidity
29385;BME280;16367;48.736;9.218;2023-01-15T00:01:18;-23468.00;;;9.48;100.00
29385;BME280;16367;48.736;9.218;2023-01-15T00:03:21;-23467.22;;;9.45;100.00
29385;BME280;16367;48.736;9.218;2023-01-15T00:05:23;-23469.13;;;9.51;100.00
29385;BME280;16367;48.736;9.218;2023-01-15T00:07:26;-23467.84;;;9.47;100.00
29385;BME280;16367;48.736;9.218;2023-01-15T00:09:29;-23468.63;;;9.50;100.00
29385;BME280;16367;48.736;9.218;2023-01-15T00:11:32;-23469.28;;;9.52;100.00
29385;BME280;16367;48.736;9.218;2023-01-15T00:13:36;-23470.06;;;9.54;100.00
29385;BME280;16367;48.736;9.218;2023-01-15T00:15:38;-23468.81;;;9.50;100.00
29385;BME280;16367;48.736;9.218;2023-01-15T00:17:41;-23469.91;;;9.54;100.00
29385;BME280;16367;48.736;9.218;2023-01-15T00:19:45;-23470.53;;;9.56;100.00
29385;BME280;16367;48.736;9.218;2023-01-15T00:21:48;-23469.75;;;9.53;100.00
29385;BME280;16367;48.736;9.218;2023-01-15T00:23:51;-23468.97;;;9.51;100.00
29385;BME280;16367;48.736;9.218;2023-01-15T00:26:12;-23469.75;;;9.53;100.00
29385;BME280;16367;48.736;9.218;2023-01-15T00:28:40;-23470.69;;;9.56;100.00
29385;BME280;16367;48.736;9.218;2023-01-15T00:30:43;-23468.00;;;9.48;100.00
29385;BME280;16367;48.736;9.218;2023-01-15T00:32:45;-23467.22;;;9.45;100.00
29385;BME280;16367;48.736;9.218;2023-01-15T00:34:48;-23467.84;;;9.47;100.00
29385;BME280;16367;48.736;9.218;2023-01-15T00:36:51;-23468.81;;;9.50;100.00
29385;BME280;16367;48.736;9.218;2023-01-15T00:38:53;-23468.00;;;9.48;100.00
29385;BME280;16367;48.736;9.218;2023-01-15T00:40:56;-23468.81;;;9.50;100.00
29385;BME280;16367;48.736;9.218;2023-01-15T00:42:59;-23469.59;;;9.53;100.00
29385;BME280;16367;48.736;9.218;2023-01-15T00:45:03;-23471.19;;;9.58;100.00
29385;BME280;16367;48.736;9.218;2023-01-15T00:47:10;-23471.97;;;9.60;100.00
29385;BME280;16367;48.736;9.218;2023-01-15T00:49:15;-23471.34;;;9.58;100.00
29385;BME280;16367;48.736;9.218;2023-01-15T00:51:18;-23472.28;;;9.61;100.00
29385;BME280;16367;48.736;9.218;2023-01-15T00:53:21;-23472.91;;;9.63;100.00
29385;BME280;16367;48.736;9.218;2023-01-15T00:55:24;-23473.09;;;9.64;100.00
29385;BME280;16367;48.736;9.218;2023-01-15T00:57:27;-23475.16;;;9.70;100.00
29385;BME280;16367;48.736;9.218;2023-01-15T00:59:29;-23478.47;;;9.81;100.00
29385;BME280;16367;48.736;9.218;2023-01-15T01:01:33;-23477.19;;;9.77;100.00
29385;BME280;16367;48.736;9.218;2023-01-15T01:03:36;-23478.16;;;9.80;100.00
29385;BME280;16367;48.736;9.218;2023-01-15T01:05:39;-23482.75;;;9.95;100.00
29385;BME280;16367;48.736;9.218;2023-01-15T01:07:42;-23483.38;;;9.97;100.00
29385;BME280;16367;48.736;9.218;2023-01-15T01:09:44;-23485.28;;;10.03;100.00
29385;BME280;16367;48.736;9.218;2023-01-15T01:11:48;-23484.03;;;9.99;100.00
29385;BME280;16367;48.736;9.218;2023-01-15T01:13:51;-23484.97;;;10.02;100.00
29385;BME280;16367;48.736;9.218;2023-01-15T01:15:54;-23484.81;;;10.01;100.00
29385;BME280;16367;48.736;9.218;2023-01-15T01:17:58;-23484.34;;;10.00;100.00
29385;BME280;16367;48.736;9.218;2023-01-15T01:20:02;-23487.34;;;10.09;100.00
29385;BME280;16367;48.736;9.218;2023-01-15T01:22:05;-23488.47;;;10.13;100.00
29385;BME280;16367;48.736;9.218;2023-01-15T01:24:09;-23487.19;;;10.09;100.00
29385;BME280;16367;48.736;9.218;2023-01-15T01:26:12;-23487.19;;;10.09;100.00
29385;BME280;16367;48.736;9.218;2023-01-15T01:28:15;-23486.88;;;10.08;100.00
29385;BME280;16367;48.736;9.218;2023-01-15T01:30:18;-23487.19;;;10.09;100.00
29385;BME280;16367;48.736;9.218;2023-01-15T01:32:21;-23489.25;;;10.15;100.00
29385;BME280;16367;48.736;9.218;2023-01-15T01:34:25;-23489.25;;;10.15;100.00
29385;BME280;16367;48.736;9.218;2023-01-15T01:36:29;-23488.94;;;10.14;100.00
29385;BME280;16367;48.736;9.218;2023-01-15T01:38:32;-23488.47;;;10.13;100.00
29385;BME280;16367;48.736;9.218;2023-01-15T01:40:37;-23488.78;;;10.14;100.00
29385;BME280;16367;48.736;9.218;2023-01-15T01:42:41;-23487.19;;;10.09;100.00
29385;BME280;16367;48.736;9.218;2023-01-15T01:44:59;-23486.56;;;10.07;100.00
29385;BME280;16367;48.736;9.218;2023-01-15T01:47:05;-23485.91;;;10.05;100.00
29385;BME280;16367;48.736;9.218;2023-01-15T01:49:11;-23486.25;;;10.06;100.00
29385;BME280;16367;48.736;9.218;2023-01-15T01:51:17;-23486.72;;;10.07;100.00
29385;BME280;16367;48.736;9.218;2023-01-15T01:53:23;-23489.72;;;10.17;100.00
29385;BME280;16367;48.736;9.218;2023-01-15T01:55:28;-23488.31;;;10.12;100.00
29385;BME280;16367;48.736;9.218;2023-01-15T01:57:32;-23487.34;;;10.09;100.00
29385;BME280;16367;48.736;9.218;2023-01-15T01:59:35;-23489.09;;;10.15;100.00
29385;BME280;16367;48.736;9.218;2023-01-15T02:01:39;-23487.19;;;10.09;100.00
29385;BME280;16367;48.736;9.218;2023-01-15T02:03:42;-23487.34;;;10.09;100.00
29385;BME280;16367;48.736;9.218;2023-01-15T02:05:48;-23489.25;;;10.15;100.00
29385;BME280;16367;48.736;9.218;2023-01-15T02:07:53;-23488.63;;;10.13;100.00
29385;BME280;16367;48.736;9.218;2023-01-15T02:09:56;-23489.41;;;10.16;100.00
29385;BME280;16367;48.736;9.218;2023-01-15T02:12:02;-23487.50;;;10.10;100.00
29385;BME280;16367;48.736;9.218;2023-01-15T02:14:11;-23490.22;;;10.18;100.00
29385;BME280;16367;48.736;9.218;2023-01-15T02:16:20;-23489.41;;;10.16;100.00
29385;BME280;16367;48.736;9.218;2023-01-15T02:18:28;-23487.84;;;10.11;100.00
29385;BME280;16367;48.736;9.218;2023-01-15T02:20:36;-23488.16;;;10.12;100.00
29385;BME280;16367;48.736;9.218;2023-01-15T02:22:55;-23487.34;;;10.09;100.00
29385;BME280;16367;48.736;9.218;2023-01-15T02:25:04;-23486.56;;;10.07;100.00
29385;BME280;16367;48.736;9.218;2023-01-15T02:27:14;-23486.88;;;10.08;100.00
29385;BME280;16367;48.736;9.218;2023-01-15T02:29:23;-23486.72;;;10.07;100.00
29385;BME280;16367;48.736;9.218;2023-01-15T02:31:32;-23487.84;;;10.11;100.00
29385;BME280;16367;48.736;9.218;2023-01-15T02:33:38;-23487.84;;;10.11;100.00
29385;BME280;16367;48.736;9.218;2023-01-15T02:35:45;-23486.25;;;10.06;100.00
29385;BME280;16367;48.736;9.218;2023-01-15T02:37:53;-23486.09;;;10.05;100.00
29385;BME280;16367;48.736;9.218;2023-01-15T02:39:58;-23486.09;;;10.05;100.00
29385;BME280;16367;48.736;9.218;2023-01-15T02:42:04;-23486.25;;;10.06;100.00
29385;BME280;16367;48.736;9.218;2023-01-15T02:44:12;-23487.84;;;10.11;100.00
29385;BME280;16367;48.736;9.218;2023-01-15T02:46:17;-23487.84;;;10.11;100.00
29385;BME280;16367;48.736;9.218;2023-01-15T02:48:23;-23488.78;;;10.14;100.00
29385;BME280;16367;48.736;9.218;2023-01-15T02:50:30;-23487.03;;;10.08;100.00
29385;BME280;16367;48.736;9.218;2023-01-15T02:52:41;-23487.19;;;10.09;100.00
29385;BME280;16367;48.736;9.218;2023-01-15T02:54:49;-23487.50;;;10.10;100.00
29385;BME280;16367;48.736;9.218;2023-01-15T02:56:56;-23487.50;;;10.10;100.00
29385;BME280;16367;48.736;9.218;2023-01-15T02:59:03;-23486.09;;;10.05;100.00
29385;BME280;16367;48.736;9.218;2023-01-15T03:01:13;-23487.50;;;10.10;100.00
29385;BME280;16367;48.736;9.218;2023-01-15T03:03:23;-23485.44;;;10.03;100.00
29385;BME280;16367;48.736;9.218;2023-01-15T03:05:30;-23484.34;;;10.00;100.00
29385;BME280;16367;48.736;9.218;2023-01-15T03:07:36;-23484.97;;;10.02;100.00
29385;BME280;16367;48.736;9.218;2023-01-15T03:09:42;-23483.38;;;9.97;100.00
29385;BME280;16367;48.736;9.218;2023-01-15T03:11:48;-23483.84;;;9.98;100.00
29385;BME280;16367;48.736;9.218;2023-01-15T03:14:01;-23482.75;;;9.95;100.00
29385;BME280;16367;48.736;9.218;2023-01-15T03:16:11;-23484.34;;;10.00;100.00
29385;BME280;16367;48.736;9.218;2023-01-15T03:18:38;-23485.13;;;10.02;100.00
29385;BME280;16367;48.736;9.218;2023-01-15T03:20:48;-23486.09;;;10.05;100.00
29385;BME280;16367;48.736;9.218;2023-01-15T03:22:57;-23486.41;;;10.06;100.00
29385;BME280;16367;48.736;9.218;2023-01-15T03:25:03;-23486.25;;;10.06;100.00
29385;BME280;16367;48.736;9.218;2023-01-15T03:27:08;-23486.09;;;10.05;100.00
29385;BME280;16367;48.736;9.218;2023-01-15T03:29:12;-23486.72;;;10.07;100.00
29385;BME280;16367;48.736;9.218;2023-01-15T03:31:16;-23485.59;;;10.04;100.00
29385;BME280;16367;48.736;9.218;2023-01-15T03:33:19;-23486.25;;;10.06;100.00
29385;BME280;16367;48.736;9.218;2023-01-15T03:35:43;-23487.19;;;10.09;100.00
29385;BME280;16367;48.736;9.218;2023-01-15T03:37:46;-23486.56;;;10.07;100.00
29385;BME280;16367;48.736;9.218;2023-01-15T03:39:49;-23486.25;;;10.06;100.00
29385;BME280;16367;48.736;9.218;2023-01-15T03:42:01;-23485.91;;;10.05;100.00
29385;BME280;16367;48.736;9.218;2023-01-15T03:44:14;-23485.59;;;10.04;100.00
29385;BME280;16367;48.736;9.218;2023-01-15T03:46:34;-23483.72;;;9.98;100.00
29385;BME280;16367;48.736;9.218;2023-01-15T03:48:41;-23482.75;;;9.95;100.00
29385;BME280;16367;48.736;9.218;2023-01-15T03:50:47;-23482.28;;;9.93;100.00
29385;BME280;16367;48.736;9.218;2023-01-15T03:53:00;-23483.06;;;9.96;100.00
29385;BME280;16367;48.736;9.218;2023-01-15T03:55:10;-23482.28;;;9.93;100.00
29385;BME280;16367;48.736;9.218;2023-01-15T03:57:23;-23483.06;;;9.96;100.00
29385;BME280;16367;48.736;9.218;2023-01-15T03:59:32;-23484.03;;;9.99;100.00
29385;BME280;16367;48.736;9.218;2023-01-15T04:01:40;-23485.28;;;10.03;100.00
29385;BME280;16367;48.736;9.218;2023-01-15T04:03:44;-23485.13;;;10.02;100.00
29385;BME280;16367;48.736;9.218;2023-01-15T04:05:50;-23484.81;;;10.01;100.00
29385;BME280;16367;48.736;9.218;2023-01-15T04:07:53;-23485.59;;;10.04;100.00
29385;BME280;16367;48.736;9.218;2023-01-15T04:09:57;-23486.88;;;10.08;100.00
29385;BME280;16367;48.736;9.218;2023-01-15T04:12:00;-23486.41;;;10.06;100.00
29385;BME280;16367;48.736;9.218;2023-01-15T04:14:04;-23488.16;;;10.12;100.00
29385;BME280;16367;48.736;9.218;2023-01-15T04:16:07;-23488.78;;;10.14;100.00
29385;BME280;16367;48.736;9.218;2023-01-15T04:18:11;-23487.66;;;10.10;100.00
29385;BME280;16367;48.736;9.218;2023-01-15T04:20:14;-23487.50;;;10.10;100.00
29385;BME280;16367;48.736;9.218;2023-01-15T04:22:17;-23488.47;;;10.13;100.00
29385;BME280;16367;48.736;9.218;2023-01-15T04:24:19;-23487.19;;;10.09;100.00
29385;BME280;16367;48.736;9.218;2023-01-15T04:26:22;-23487.19;;;10.09;100.00
29385;BME280;16367;48.736;9.218;2023-01-15T04:28:25;-23486.88;;;10.08;100.00
29385;BME280;16367;48.736;9.218;2023-01-15T04:30:27;-23486.88;;;10.08;100.00
29385;BME280;16367;48.736;9.218;2023-01-15T04:32:30;-23487.84;;;10.11;100.00
29385;BME280;16367;48.736;9.218;2023-01-15T04:34:34;-23489.41;;;10.16;100.00
29385;BME280;16367;48.736;9.218;2023-01-15T04:36:37;-23489.72;;;10.17;100.00
29385;BME280;16367;48.736;9.218;2023-01-15T04:38:40;-23491.31;;;10.22;100.00
29385;BME280;16367;48.736;9.218;2023-01-15T04:40:43;-23490.84;;;10.20;100.00
29385;BME280;16367;48.736;9.218;2023-01-15T04:43:03;-23491.94;;;10.24;100.00
29385;BME280;16367;48.736;9.218;2023-01-15T04:45:24;-23492.25;;;10.25;100.00
29385;BME280;16367;48.736;9.218;2023-01-15T04:47:28;-23493.53;;;10.29;100.00
29385;BME280;16367;48.736;9.218;2023-01-15T04:49:32;-23494.16;;;10.31;100.00
29385;BME280;16367;48.736;9.218;2023-01-15T04:51:36;-23494.50;;;10.32;100.00
29385;BME280;16367;48.736;9.218;2023-01-15T04:53:39;-23494.31;;;10.31;100.00
29385;BME280;16367;48.736;9.218;2023-01-15T04:55:43;-23493.84;;;10.30;100.00
29385;BME280;16367;48.736;9.218;2023-01-15T04:57:48;-23493.06;;;10.27;100.00
29385;BME280;16367;48.736;9.218;2023-01-15T04:59:51;-23493.84;;;10.30;100.00
29385;BME280;16367;48.736;9.218;2023-01-15T05:01:54;-23494.97;;;10.33;100.00
29385;BME280;16367;48.736;9.218;2023-01-15T05:04:06;-23495.44;;;10.35;100.00
29385;BME280;16367;48.736;9.218;2023-01-15T05:06:09;-23496.22;;;10.37;100.00
29385;BME280;16367;48.736;9.218;2023-01-15T05:08:15;-23494.81;;;10.33;100.00
29385;BME280;16367;48.736;9.218;2023-01-15T05:10:18;-23495.44;;;10.35;100.00
29385;BME280;16367;48.736;9.218;2023-01-15T05:12:21;-23493.69;;;10.29;100.00
29385;BME280;16367;48.736;9.218;2023-01-15T05:14:23;-23495.13;;;10.34;100.00
29385;BME280;16367;48.736;9.218;2023-01-15T05:16:27;-23496.72;;;10.39;100.00
29385;BME280;16367;48.736;9.218;2023-01-15T05:18:30;-23496.38;;;10.38;100.00
29385;BME280;16367;48.736;9.218;2023-01-15T05:20:35;-23496.06;;;10.37;100.00
29385;BME280;16367;48.736;9.218;2023-01-15T05:22:38;-23495.44;;;10.35;100.00
29385;BME280;16367;48.736;9.218;2023-01-15T05:24:42;-23496.06;;;10.37;100.00
29385;BME280;16367;48.736;9.218;2023-01-15T05:26:44;-23495.91;;;10.36;100.00
29385;BME280;16367;48.736;9.218;2023-01-15T05:28:47;-23497.97;;;10.43;100.00
29385;BME280;16367;48.736;9.218;2023-01-15T05:30:50;-23500.19;;;10.50;100.00
29385;BME280;16367;48.736;9.218;2023-01-15T05:32:53;-23497.34;;;10.41;100.00
29385;BME280;16367;48.736;9.218;2023-01-15T05:34:56;-23497.03;;;10.40;100.00
29385;BME280;16367;48.736;9.218;2023-01-15T05:36:58;-23495.13;;;10.34;100.00
29385;BME280;16367;48.736;9.218;2023-01-15T05:39:01;-23487.19;;;10.09;100.00
29385;BME280;16367;48.736;9.218;2023-01-15T05:41:06;-23470.69;;;9.56;100.00
29385;BME280;16367;48.736;9.218;2023-01-15T05:43:29;-23437.53;;;8.51;100.00
29385;BME280;16367;48.736;9.218;2023-01-15T05:45:33;-23434.53;;;8.42;100.00
29385;BME280;16367;48.736;9.218;2023-01-15T05:47:36;-23422.78;;;8.04;100.00
29385;BME280;16367;48.736;9.218;2023-01-15T05:49:39;-23427.84;;;8.20;100.00
29385;BME280;16367;48.736;9.218;2023-01-15T05:51:42;-23412.13;;;7.71;100.00
29385;BME280;16367;48.736;9.218;2023-01-15T05:53:45;-23411.03;;;7.67;100.00
29385;BME280;16367;48.736;9.218;2023-01-15T05:55:47;-23407.69;;;7.57;100.00
29385;BME280;16367;48.736;9.218;2023-01-15T05:57:51;-23408.16;;;7.58;100.00
29385;BME280;16367;48.736;9.218;2023-01-15T05:59:54;-23402.94;;;7.41;100.00
29385;BME280;16367;48.736;9.218;2023-01-15T06:01:58;-23401.50;;;7.37;100.00
29385;BME280;16367;48.736;9.218;2023-01-15T06:04:02;-23404.03;;;7.45;100.00
29385;BME280;16367;48.736;9.218;2023-01-15T06:06:06;-23402.13;;;7.39;100.00
29385;BME280;16367;48.736;9.218;2023-01-15T06:08:12;-23401.50;;;7.37;100.00
29385;BME280;16367;48.736;9.218;2023-01-15T06:10:15;-23400.22;;;7.33;100.00
29385;BME280;16367;48.736;9.218;2023-01-15T06:12:18;-23402.78;;;7.41;100.00
29385;BME280;16367;48.736;9.218;2023-01-15T06:14:23;-23396.56;;;7.21;100.00
29385;BME280;16367;48.736;9.218;2023-01-15T06:16:25;-23394.81;;;7.16;100.00
29385;BME280;16367;48.736;9.218;2023-01-15T06:18:28;-23394.03;;;7.13;100.00
29385;BME280;16367;48.736;9.218;2023-01-15T06:20:31;-23396.72;;;7.22;100.00
29385;BME280;16367;48.736;9.218;2023-01-15T06:22:36;-23388.78;;;6.97;100.00
29385;BME280;16367;48.736;9.218;2023-01-15T06:24:40;-23396.09;;;7.20;100.00
29385;BME280;16367;48.736;9.218;2023-01-15T06:26:42;-23384.81;;;6.84;100.00
29385;BME280;16367;48.736;9.218;2023-01-15T06:28:46;-23381.31;;;6.73;100.00
29385;BME280;16367;48.736;9.218;2023-01-15T06:30:50;-23383.69;;;6.81;100.00
29385;BME280;16367;48.736;9.218;2023-01-15T06:32:52;-23380.06;;;6.69;100.00
29385;BME280;16367;48.736;9.218;2023-01-15T06:34:55;-23381.16;;;6.72;100.00
29385;BME280;16367;48.736;9.218;2023-01-15T06:36:58;-23385.44;;;6.86;100.00
29385;BME280;16367;48.736;9.218;2023-01-15T06:39:00;-23382.44;;;6.76;100.00
29385;BME280;16367;48.736;9.218;2023-01-15T06:41:09;-23384.66;;;6.84;100.00
29385;BME280;16367;48.736;9.218;2023-01-15T06:43:27;-23380.22;;;6.69;100.00
29385;BME280;16367;48.736;9.218;2023-01-15T06:45:47;-23383.53;;;6.80;100.00
29385;BME280;16367;48.736;9.218;2023-01-15T06:48:24;-23377.03;;;6.59;100.00
29385;BME280;16367;48.736;9.218;2023-01-15T06:50:27;-23380.53;;;6.70;100.00
29385;BME280;16367;48.736;9.218;2023-01-15T06:52:29;-23381.78;;;6.74;100.00
29385;BME280;16367;48.736;9.218;2023-01-15T06:54:32;-23377.50;;;6.61;100.00
29385;BME280;16367;48.736;9.218;2023-01-15T06:56:35;-23380.38;;;6.70;100.00
29385;BME280;16367;48.736;9.218;2023-01-15T06:58:38;-23376.41;;;6.57;100.00
29385;BME280;16367;48.736;9.218;2023-01-15T07:00:40;-23377.81;;;6.62;100.00
29385;BME280;16367;48.736;9.218;2023-01-15T07:02:46;-23382.59;;;6.77;100.00
29385;BME280;16367;48.736;9.218;2023-01-15T07:04:51;-23371.47;;;6.42;100.00
29385;BME280;16367;48.736;9.218;2023-01-15T07:06:54;-23372.41;;;6.45;100.00
29385;BME280;16367;48.736;9.218;2023-01-15T07:08:57;-23373.22;;;6.47;100.00
29385;BME280;16367;48.736;9.218;2023-01-15T07:11:04;-23367.50;;;6.29;100.00
29385;BME280;16367;48.736;9.218;2023-01-15T07:13:08;-23367.34;;;6.29;100.00
29385;BME280;16367;48.736;9.218;2023-01-15T07:15:11;-23367.00;;;6.28;100.00
29385;BME280;16367;48.736;9.218;2023-01-15T07:17:13;-23365.09;;;6.22;100.00
29385;BME280;16367;48.736;9.218;2023-01-15T07:19:17;-23360.81;;;6.08;100.00
29385;BME280;16367;48.736;9.218;2023-01-15T07:21:21;-23367.16;;;6.28;100.00
29385;BME280;16367;48.736;9.218;2023-01-15T07:23:25;-23363.84;;;6.18;100.00
29385;BME280;16367;48.736;9.218;2023-01-15T07:25:28;-23357.94;;;5.99;100.00
29385;BME280;16367;48.736;9.218;2023-01-15T07:27:31;-23358.59;;;6.01;100.00
29385;BME280;16367;48.736;9.218;2023-01-15T07:29:34;-23349.50;;;5.72;100.00
29385;BME280;16367;48.736;9.218;2023-01-15T07:31:37;-23345.22;;;5.59;100.00
29385;BME280;16367;48.736;9.218;2023-01-15T07:33:40;-23344.59;;;5.57;100.00
29385;BME280;16367;48.736;9.218;2023-01-15T07:35:42;-23352.53;;;5.82;100.00
29385;BME280;16367;48.736;9.218;2023-01-15T07:37:50;-23344.25;;;5.56;100.00
29385;BME280;16367;48.736;9.218;2023-01-15T07:39:53;-23345.53;;;5.60;100.00
29385;BME280;16367;48.736;9.218;2023-01-15T07:41:57;-23346.16;;;5.62;100.00
29385;BME280;16367;48.736;9.218;2023-01-15T07:44:18;-23341.41;;;5.47;100.00
29385;BME280;16367;48.736;9.218;2023-01-15T07:46:38;-23344.41;;;5.56;100.00
29385;BME280;16367;48.736;9.218;2023-01-15T07:49:04;-23344.72;;;5.57;100.00
29385;BME280;16367;48.736;9.218;2023-01-15T07:51:33;-23343.47;;;5.53;100.00
29385;BME280;16367;48.736;9.218;2023-01-15T07:53:37;-23345.84;;;5.61;100.00
29385;BME280;16367;48.736;9.218;2023-01-15T07:55:39;-23343.31;;;5.53;100.00
29385;BME280;16367;48.736;9.218;2023-01-15T07:57:42;-23343.00;;;5.52;100.00
29385;BME280;16367;48.736;9.218;2023-01-15T07:59:45;-23337.25;;;5.34;100.00
29385;BME280;16367;48.736;9.218;2023-01-15T08:01:48;-23340.59;;;5.44;100.00
29385;BME280;16367;48.736;9.218;2023-01-15T08:03:51;-23339.16;;;5.40;100.00
29385;BME280;16367;48.736;9.218;2023-01-15T08:05:54;-23339.00;;;5.39;100.00
29385;BME280;16367;48.736;9.218;2023-01-15T08:07:57;-23336.63;;;5.32;100.00
29385;BME280;16367;48.736;9.218;2023-01-15T08:10:01;-23342.66;;;5.51;100.00
29385;BME280;16367;48.736;9.218;2023-01-15T08:12:04;-23341.25;;;5.46;100.00
29385;BME280;16367;48.736;9.218;2023-01-15T08:14:24;-23342.66;;;5.51;100.00
29385;BME280;16367;48.736;9.218;2023-01-15T08:16:45;-23343.47;;;5.53;100.00
29385;BME280;16367;48.736;9.218;2023-01-15T08:18:47;-23342.03;;;5.49;100.00
29385;BME280;16367;48.736;9.218;2023-01-15T08:20:50;-23346.00;;;5.61;100.00
29385;BME280;16367;48.736;9.218;2023-01-15T08:22:53;-23346.50;;;5.63;100.00
29385;BME280;16367;48.736;9.218;2023-01-15T08:24:55;-23344.91;;;5.58;100.00
29385;BME280;16367;48.736;9.218;2023-01-15T08:26:59;-23343.47;;;5.53;100.00
29385;BME280;16367;48.736;9.218;2023-01-15T08:29:02;-23335.19;;;5.27;100.00
29385;BME280;16367;48.736;9.218;2023-01-15T08:31:05;-23344.59;;;5.57;100.00
29385;BME280;16367;48.736;9.218;2023-01-15T08:33:09;-23345.84;;;5.61;100.00
29385;BME280;16367;48.736;9.218;2023-01-15T08:35:12;-23346.66;;;5.63;100.00
29385;BME280;16367;48.736;9.218;2023-01-15T08:37:14;-23348.41;;;5.69;100.00
29385;BME280;16367;48.736;9.218;2023-01-15T08:39:17;-23345.69;;;5.60;100.00
29385;BME280;16367;48.736;9.218;2023-01-15T08:41:20;-23347.44;;;5.66;100.00
29385;BME280;16367;48.736;9.218;2023-01-15T08:43:24;-23342.34;;;5.50;100.00
29385;BME280;16367;48.736;9.218;2023-01-15T08:45:27;-23344.09;;;5.55;100.00
29385;BME280;16367;48.736;9.218;2023-01-15T08:47:30;-23349.03;;;5.71;100.00
29385;BME280;16367;48.736;9.218;2023-01-15T08:49:33;-23346.66;;;5.63;100.00
29385;BME280;16367;48.736;9.218;2023-01-15T08:51:36;-23352.22;;;5.81;100.00
29385;BME280;16367;48.736;9.218;2023-01-15T08:53:38;-23352.53;;;5.82;100.00
29385;BME280;16367;48.736;9.218;2023-01-15T08:55:41;-23345.06;;;5.58;100.00
29385;BME280;16367;48.736;9.218;2023-01-15T08:57:44;-23354.13;;;5.87;100.00
29385;BME280;16367;48.736;9.218;2023-01-15T08:59:48;-23352.53;;;5.82;100.00
29385;BME280;16367;48.736;9.218;2023-01-15T09:01:50;-23353.81;;;5.86;100.00
29385;BME280;16367;48.736;9.218;2023-01-15T09:03:53;-23348.41;;;5.69;100.00
29385;BME280;16367;48.736;9.218;2023-01-15T09:05:57;-23358.09;;;5.99;100.00
29385;BME280;16367;48.736;9.218;2023-01-15T09:07:59;-23352.69;;;5.82;100.00
29385;BME280;16367;48.736;9.218;2023-01-15T09:10:03;-23345.84;;;5.61;100.00
29385;BME280;16367;48.736;9.218;2023-01-15T09:12:06;-23352.69;;;5.82;100.00
29385;BME280;16367;48.736;9.218;2023-01-15T09:14:10;-23347.28;;;5.65;100.00
29385;BME280;16367;48.736;9.218;2023-01-15T09:16:35;-23345.22;;;5.59;100.00
29385;BME280;16367;48.736;9.218;2023-01-15T09:18:38;-23343.31;;;5.53;100.00
29385;BME280;16367;48.736;9.218;2023-01-15T09:20:41;-23342.50;;;5.50;100.00
29385;BME280;16367;48.736;9.218;2023-01-15T09:22:44;-23341.06;;;5.46;100.00
29385;BME280;16367;48.736;9.218;2023-01-15T09:24:47;-23340.75;;;5.45;100.00
29385;BME280;16367;48.736;9.218;2023-01-15T09:26:49;-23340.44;;;5.44;100.00
29385;BME280;16367;48.736;9.218;2023-01-15T09:28:54;-23340.13;;;5.43;100.00
29385;BME280;16367;48.736;9.218;2023-01-15T09:30:56;-23340.91;;;5.45;100.00
29385;BME280;16367;48.736;9.218;2023-01-15T09:33:00;-23341.56;;;5.47;100.00
29385;BME280;16367;48.736;9.218;2023-01-15T09:35:03;-23343.63;;;5.54;100.00
29385;BME280;16367;48.736;9.218;2023-01-15T09:37:06;-23346.81;;;5.64;100.00
29385;BME280;16367;48.736;9.218;2023-01-15T09:39:09;-23345.06;;;5.58;100.00
29385;BME280;16367;48.736;9.218;2023-01-15T09:41:13;-23342.03;;;5.49;100.00
29385;BME280;16367;48.736;9.218;2023-01-15T09:43:38;-23350.31;;;5.75;100.00
29385;BME280;16367;48.736;9.218;2023-01-15T09:45:54;-23353.19;;;5.84;100.00
29385;BME280;16367;48.736;9.218;2023-01-15T09:48:14;-23352.22;;;5.81;100.00
29385;BME280;16367;48.736;9.218;2023-01-15T09:50:28;-23354.44;;;5.88;100.00
29385;BME280;16367;48.736;9.218;2023-01-15T09:52:45;-23349.34;;;5.72;100.00
29385;BME280;16367;48.736;9.218;2023-01-15T09:54:57;-23345.84;;;5.61;100.00
29385;BME280;16367;48.736;9.218;2023-01-15T09:57:02;-23355.72;;;5.92;100.00
29385;BME280;16367;48.736;9.218;2023-01-15T09:59:15;-23353.19;;;5.84;100.00
29385;BME280;16367;48.736;9.218;2023-01-15T10:01:25;-23350.31;;;5.75;100.00
29385;BME280;16367;48.736;9.218;2023-01-15T10:03:32;-23359.84;;;6.05;100.00
29385;BME280;16367;48.736;9.218;2023-01-15T10:05:43;-23359.69;;;6.05;100.00
29385;BME280;16367;48.736;9.218;2023-01-15T10:07:53;-23360.50;;;6.07;100.00
29385;BME280;16367;48.736;9.218;2023-01-15T10:10:00;-23358.59;;;6.01;100.00
29385;BME280;16367;48.736;9.218;2023-01-15T10:12:12;-23357.63;;;5.98;100.00
29385;BME280;16367;48.736;9.218;2023-01-15T10:14:39;-23349.66;;;5.73;100.00
29385;BME280;16367;48.736;9.218;2023-01-15T10:16:45;-23350.31;;;5.75;100.00
29385;BME280;16367;48.736;9.218;2023-01-15T10:18:49;-23352.84;;;5.83;100.00
29385;BME280;16367;48.736;9.218;2023-01-15T10:21:13;-23352.84;;;5.83;100.00
29385;BME280;16367;48.736;9.218;2023-01-15T10:23:33;-23346.31;;;5.62;100.00
29385;BME280;16367;48.736;9.218;2023-01-15T10:25:43;-23339.81;;;5.42;100.00
29385;BME280;16367;48.736;9.218;2023-01-15T10:27:50;-23348.09;;;5.68;100.00
29385;BME280;16367;48.736;9.218;2023-01-15T10:29:55;-23346.97;;;5.64;100.00
29385;BME280;16367;48.736;9.218;2023-01-15T10:32:21;-23340.91;;;5.45;100.00
29385;BME280;16367;48.736;9.218;2023-01-15T10:37:11;-23345.69;;;5.60;100.00
29385;BME280;16367;48.736;9.218;2023-01-15T10:39:21;-23344.41;;;5.56;100.00
29385;BME280;16367;48.736;9.218;2023-01-15T10:41:45;-23338.06;;;5.36;100.00
29385;BME280;16367;48.736;9.218;2023-01-15T10:43:52;-23328.66;;;5.06;100.00
29385;BME280;16367;48.736;9.218;2023-01-15T10:45:59;-23333.13;;;5.20;100.00
29385;BME280;16367;48.736;9.218;2023-01-15T10:48:08;-23339.97;;;5.42;100.00
29385;BME280;16367;48.736;9.218;2023-01-15T10:50:16;-23330.88;;;5.13;100.00
29385;BME280;16367;48.736;9.218;2023-01-15T10:52:26;-23326.75;;;5.00;100.00
29385;BME280;16367;48.736;9.218;2023-01-15T10:54:33;-23330.56;;;5.12;100.00
29385;BME280;16367;48.736;9.218;2023-01-15T10:56:40;-23325.47;;;4.96;100.00
29385;BME280;16367;48.736;9.218;2023-01-15T10:58:49;-23326.75;;;5.00;100.00